sensor_id;sensor_type;location;lat;lon;timestamp;P1;durP1;ratioP1;P2;durP2;ratioP2
66721;SDS011;53633;49.932;10.884;2023-02-11T00:01:45;80.47;;;31.00;;
66721;SDS011;53633;49.932;10.884;2023-02-11T00:04:12;90.03;;;31.20;;
66721;SDS011;53633;49.932;10.884;2023-02-11T00:06:39;78.32;;;30.30;;
66721;SDS011;53633;49.932;10.884;2023-02-11T00:09:06;82.40;;;31.75;;
66721;SDS011;53633;49.932;10.884;2023-02-11T00:11:33;82.75;;;28.95;;
66721;SDS011;53633;49.932;10.884;2023-02-11T00:14:02;85.77;;;31.10;;
66721;SDS011;53633;49.932;10.884;2023-02-11T00:16:30;72.32;;;27.17;;
66721;SDS011;53633;49.932;10.884;2023-02-11T00:18:57;76.63;;;29.05;;
66721;SDS011;53633;49.932;10.884;2023-02-11T00:21:25;75.47;;;27.55;;
66721;SDS011;53633;49.932;10.884;2023-02-11T00:23:52;70.60;;;25.58;;
66721;SDS011;53633;49.932;10.884;2023-02-11T00:26:20;68.60;;;25.93;;
66721;SDS011;53633;49.932;10.884;2023-02-11T00:28:49;76.43;;;27.58;;
66721;SDS011;53633;49.932;10.884;2023-02-11T00:31:19;81.88;;;30.60;;
66721;SDS011;53633;49.932;10.884;2023-02-11T00:33:47;86.22;;;30.23;;
66721;SDS011;53633;49.932;10.884;2023-02-11T00:36:15;92.53;;;34.83;;
66721;SDS011;53633;49.932;10.884;2023-02-11T00:38:43;87.20;;;32.53;;
66721;SDS011;53633;49.932;10.884;2023-02-11T00:41:10;88.00;;;32.65;;
66721;SDS011;53633;49.932;10.884;2023-02-11T00:43:38;85.75;;;31.55;;
66721;SDS011;53633;49.932;10.884;2023-02-11T00:46:05;95.32;;;34.95;;
66721;SDS011;53633;49.932;10.884;2023-02-11T00:48:33;78.93;;;30.23;;
66721;SDS011;53633;49.932;10.884;2023-02-11T00:51:01;89.80;;;29.47;;
66721;SDS011;53633;49.932;10.884;2023-02-11T00:53:28;79.57;;;28.88;;
66721;SDS011;53633;49.932;10.884;2023-02-11T00:55:55;86.63;;;31.63;;
66721;SDS011;53633;49.932;10.884;2023-02-11T00:58:21;75.18;;;29.35;;
66721;SDS011;53633;49.932;10.884;2023-02-11T01:00:48;84.75;;;34.85;;
66721;SDS011;53633;49.932;10.884;2023-02-11T01:03:15;89.90;;;34.00;;
66721;SDS011;53633;49.932;10.884;2023-02-11T01:05:43;87.53;;;33.10;;
66721;SDS011;53633;49.932;10.884;2023-02-11T01:08:10;77.65;;;28.45;;
66721;SDS011;53633;49.932;10.884;2023-02-11T01:10:36;76.07;;;30.70;;
66721;SDS011;53633;49.932;10.884;2023-02-11T01:13:03;80.50;;;28.10;;
66721;SDS011;53633;49.932;10.884;2023-02-11T01:15:30;63.13;;;25.63;;
66721;SDS011;53633;49.932;10.884;2023-02-11T01:17:57;72.68;;;28.15;;
66721;SDS011;53633;49.932;10.884;2023-02-11T01:20:26;70.97;;;27.83;;
66721;SDS011;53633;49.932;10.884;2023-02-11T01:22:57;79.30;;;28.52;;
66721;SDS011;53633;49.932;10.884;2023-02-11T01:25:26;75.35;;;29.35;;
66721;SDS011;53633;49.932;10.884;2023-02-11T01:27:53;67.17;;;26.00;;
66721;SDS011;53633;49.932;10.884;2023-02-11T01:30:20;68.13;;;27.85;;
66721;SDS011;53633;49.932;10.884;2023-02-11T01:32:47;66.47;;;25.80;;
66721;SDS011;53633;49.932;10.884;2023-02-11T01:35:13;65.05;;;24.92;;
66721;SDS011;53633;49.932;10.884;2023-02-11T01:37:40;66.78;;;27.25;;
66721;SDS011;53633;49.932;10.884;2023-02-11T01:40:10;69.50;;;25.70;;
66721;SDS011;53633;49.932;10.884;2023-02-11T01:42:38;59.92;;;23.33;;
66721;SDS011;53633;49.932;10.884;2023-02-11T01:48:18;66.63;;;24.13;;
66721;SDS011;53633;49.932;10.884;2023-02-11T01:50:48;76.43;;;26.38;;
66721;SDS011;53633;49.932;10.884;2023-02-11T01:53:18;66.50;;;24.90;;
66721;SDS011;53633;49.932;10.884;2023-02-11T01:55:46;62.65;;;23.88;;
66721;SDS011;53633;49.932;10.884;2023-02-11T01:58:14;66.25;;;25.30;;
66721;SDS011;53633;49.932;10.884;2023-02-11T02:00:40;69.63;;;26.65;;
66721;SDS011;53633;49.932;10.884;2023-02-11T02:03:08;64.22;;;27.05;;
66721;SDS011;53633;49.932;10.884;2023-02-11T02:05:39;65.27;;;25.17;;
66721;SDS011;53633;49.932;10.884;2023-02-11T02:08:10;63.22;;;24.48;;
66721;SDS011;53633;49.932;10.884;2023-02-11T02:10:43;62.78;;;24.60;;
66721;SDS011;53633;49.932;10.884;2023-02-11T02:13:13;62.22;;;22.98;;
66721;SDS011;53633;49.932;10.884;2023-02-11T02:15:40;68.65;;;26.30;;
66721;SDS011;53633;49.932;10.884;2023-02-11T02:18:16;61.27;;;25.10;;
66721;SDS011;53633;49.932;10.884;2023-02-11T02:21:08;61.35;;;23.15;;
66721;SDS011;53633;49.932;10.884;2023-02-11T02:23:51;64.60;;;24.83;;
66721;SDS011;53633;49.932;10.884;2023-02-11T02:32:49;67.57;;;25.03;;
66721;SDS011;53633;49.932;10.884;2023-02-11T02:35:26;66.53;;;24.17;;
66721;SDS011;53633;49.932;10.884;2023-02-11T02:37:58;71.97;;;25.38;;
66721;SDS011;53633;49.932;10.884;2023-02-11T02:40:30;59.05;;;23.90;;
66721;SDS011;53633;49.932;10.884;2023-02-11T02:43:00;66.82;;;27.55;;
66721;SDS011;53633;49.932;10.884;2023-02-11T02:45:28;68.80;;;27.87;;
66721;SDS011;53633;49.932;10.884;2023-02-11T02:47:56;66.20;;;25.98;;
66721;SDS011;53633;49.932;10.884;2023-02-11T02:50:25;63.33;;;23.83;;
66721;SDS011;53633;49.932;10.884;2023-02-11T02:52:58;59.03;;;21.88;;
66721;SDS011;53633;49.932;10.884;2023-02-11T02:55:50;59.03;;;22.83;;
66721;SDS011;53633;49.932;10.884;2023-02-11T03:01:24;54.03;;;22.88;;
66721;SDS011;53633;49.932;10.884;2023-02-11T03:04:00;62.20;;;23.30;;
66721;SDS011;53633;49.932;10.884;2023-02-11T03:06:33;58.95;;;24.05;;
66721;SDS011;53633;49.932;10.884;2023-02-11T03:09:11;61.10;;;26.58;;
66721;SDS011;53633;49.932;10.884;2023-02-11T03:11:41;59.27;;;24.10;;
66721;SDS011;53633;49.932;10.884;2023-02-11T03:14:11;62.35;;;23.67;;
66721;SDS011;53633;49.932;10.884;2023-02-11T03:16:40;63.35;;;24.95;;
66721;SDS011;53633;49.932;10.884;2023-02-11T03:19:12;53.38;;;21.10;;
66721;SDS011;53633;49.932;10.884;2023-02-11T03:21:40;56.22;;;23.10;;
66721;SDS011;53633;49.932;10.884;2023-02-11T03:24:11;60.53;;;24.33;;
66721;SDS011;53633;49.932;10.884;2023-02-11T03:26:42;54.85;;;22.30;;
66721;SDS011;53633;49.932;10.884;2023-02-11T03:29:13;54.22;;;22.08;;
66721;SDS011;53633;49.932;10.884;2023-02-11T03:31:45;59.95;;;23.63;;
66721;SDS011;53633;49.932;10.884;2023-02-11T03:34:22;54.10;;;21.98;;
66721;SDS011;53633;49.932;10.884;2023-02-11T03:36:56;56.80;;;22.43;;
66721;SDS011;53633;49.932;10.884;2023-02-11T03:39:28;52.63;;;22.73;;
66721;SDS011;53633;49.932;10.884;2023-02-11T03:41:59;50.70;;;21.33;;
66721;SDS011;53633;49.932;10.884;2023-02-11T03:44:28;49.22;;;20.38;;
66721;SDS011;53633;49.932;10.884;2023-02-11T03:46:59;49.30;;;20.77;;
66721;SDS011;53633;49.932;10.884;2023-02-11T03:49:30;54.70;;;20.60;;
66721;SDS011;53633;49.932;10.884;2023-02-11T03:51:58;59.78;;;23.58;;
66721;SDS011;53633;49.932;10.884;2023-02-11T03:54:29;59.40;;;22.52;;
66721;SDS011;53633;49.932;10.884;2023-02-11T03:56:57;59.35;;;23.63;;
66721;SDS011;53633;49.932;10.884;2023-02-11T03:59:25;56.55;;;23.60;;
66721;SDS011;53633;49.932;10.884;2023-02-11T04:01:53;58.40;;;22.30;;
66721;SDS011;53633;49.932;10.884;2023-02-11T04:04:20;52.25;;;21.13;;
66721;SDS011;53633;49.932;10.884;2023-02-11T04:06:48;62.35;;;25.25;;
66721;SDS011;53633;49.932;10.884;2023-02-11T04:09:15;58.92;;;25.33;;
66721;SDS011;53633;49.932;10.884;2023-02-11T04:11:42;53.88;;;25.02;;
66721;SDS011;53633;49.932;10.884;2023-02-11T04:14:09;58.20;;;23.67;;
66721;SDS011;53633;49.932;10.884;2023-02-11T04:16:36;56.78;;;23.65;;
66721;SDS011;53633;49.932;10.884;2023-02-11T04:19:02;62.97;;;23.48;;
66721;SDS011;53633;49.932;10.884;2023-02-11T04:21:29;59.10;;;23.60;;
66721;SDS011;53633;49.932;10.884;2023-02-11T04:23:57;53.17;;;23.10;;
66721;SDS011;53633;49.932;10.884;2023-02-11T04:26:24;55.23;;;22.80;;
66721;SDS011;53633;49.932;10.884;2023-02-11T04:28:51;57.70;;;21.85;;
66721;SDS011;53633;49.932;10.884;2023-02-11T04:31:17;55.70;;;22.38;;
66721;SDS011;53633;49.932;10.884;2023-02-11T04:33:44;55.45;;;22.02;;
66721;SDS011;53633;49.932;10.884;2023-02-11T04:36:11;59.42;;;22.50;;
66721;SDS011;53633;49.932;10.884;2023-02-11T04:38:38;53.13;;;20.77;;
66721;SDS011;53633;49.932;10.884;2023-02-11T04:41:06;53.03;;;20.85;;
66721;SDS011;53633;49.932;10.884;2023-02-11T04:43:33;53.47;;;21.40;;
66721;SDS011;53633;49.932;10.884;2023-02-11T04:46:00;56.60;;;22.45;;
66721;SDS011;53633;49.932;10.884;2023-02-11T04:48:27;55.08;;;23.00;;
66721;SDS011;53633;49.932;10.884;2023-02-11T04:50:53;51.43;;;20.83;;
66721;SDS011;53633;49.932;10.884;2023-02-11T04:53:20;49.45;;;21.50;;
66721;SDS011;53633;49.932;10.884;2023-02-11T04:55:47;56.97;;;21.85;;
66721;SDS011;53633;49.932;10.884;2023-02-11T04:58:16;48.08;;;19.80;;
66721;SDS011;53633;49.932;10.884;2023-02-11T05:00:43;57.00;;;25.75;;
66721;SDS011;53633;49.932;10.884;2023-02-11T05:03:10;55.40;;;20.57;;
66721;SDS011;53633;49.932;10.884;2023-02-11T05:05:37;60.25;;;22.73;;
66721;SDS011;53633;49.932;10.884;2023-02-11T05:08:04;55.95;;;22.52;;
66721;SDS011;53633;49.932;10.884;2023-02-11T05:10:31;49.83;;;21.00;;
66721;SDS011;53633;49.932;10.884;2023-02-11T05:12:58;57.90;;;22.48;;
66721;SDS011;53633;49.932;10.884;2023-02-11T05:15:27;59.53;;;23.00;;
66721;SDS011;53633;49.932;10.884;2023-02-11T05:17:54;58.72;;;21.92;;
66721;SDS011;53633;49.932;10.884;2023-02-11T05:20:21;63.58;;;24.10;;
66721;SDS011;53633;49.932;10.884;2023-02-11T05:22:47;53.40;;;21.17;;
66721;SDS011;53633;49.932;10.884;2023-02-11T05:25:14;60.50;;;22.70;;
66721;SDS011;53633;49.932;10.884;2023-02-11T05:27:41;54.97;;;21.00;;
66721;SDS011;53633;49.932;10.884;2023-02-11T05:30:09;51.20;;;21.60;;
66721;SDS011;53633;49.932;10.884;2023-02-11T05:32:37;55.13;;;22.15;;
66721;SDS011;53633;49.932;10.884;2023-02-11T05:35:04;60.35;;;23.00;;
66721;SDS011;53633;49.932;10.884;2023-02-11T05:37:31;52.47;;;22.83;;
66721;SDS011;53633;49.932;10.884;2023-02-11T05:39:58;59.27;;;23.10;;
66721;SDS011;53633;49.932;10.884;2023-02-11T05:42:25;56.67;;;21.08;;
66721;SDS011;53633;49.932;10.884;2023-02-11T05:44:52;52.40;;;20.55;;
66721;SDS011;53633;49.932;10.884;2023-02-11T05:47:18;64.10;;;24.65;;
66721;SDS011;53633;49.932;10.884;2023-02-11T05:49:47;51.40;;;20.13;;
66721;SDS011;53633;49.932;10.884;2023-02-11T05:52:13;52.90;;;20.13;;
66721;SDS011;53633;49.932;10.884;2023-02-11T05:54:40;56.75;;;20.85;;
66721;SDS011;53633;49.932;10.884;2023-02-11T05:57:07;55.40;;;21.15;;
66721;SDS011;53633;49.932;10.884;2023-02-11T05:59:34;55.20;;;20.35;;
66721;SDS011;53633;49.932;10.884;2023-02-11T06:02:00;60.80;;;21.75;;
66721;SDS011;53633;49.932;10.884;2023-02-11T06:04:27;57.37;;;22.90;;
66721;SDS011;53633;49.932;10.884;2023-02-11T06:06:55;55.60;;;20.80;;
66721;SDS011;53633;49.932;10.884;2023-02-11T06:09:22;54.72;;;22.10;;
66721;SDS011;53633;49.932;10.884;2023-02-11T06:11:49;50.60;;;20.02;;
66721;SDS011;53633;49.932;10.884;2023-02-11T06:14:16;58.92;;;21.92;;
66721;SDS011;53633;49.932;10.884;2023-02-11T06:16:42;54.10;;;19.83;;
66721;SDS011;53633;49.932;10.884;2023-02-11T06:19:09;56.22;;;22.10;;
66721;SDS011;53633;49.932;10.884;2023-02-11T06:21:36;51.42;;;19.48;;
66721;SDS011;53633;49.932;10.884;2023-02-11T06:24:10;56.22;;;20.85;;
66721;SDS011;53633;49.932;10.884;2023-02-11T06:26:37;53.15;;;19.90;;
66721;SDS011;53633;49.932;10.884;2023-02-11T06:29:04;47.50;;;19.43;;
66721;SDS011;53633;49.932;10.884;2023-02-11T06:31:31;53.22;;;19.88;;
66721;SDS011;53633;49.932;10.884;2023-02-11T06:33:58;51.25;;;20.25;;
66721;SDS011;53633;49.932;10.884;2023-02-11T06:36:26;48.47;;;19.77;;
66721;SDS011;53633;49.932;10.884;2023-02-11T06:38:53;51.10;;;19.33;;
66721;SDS011;53633;49.932;10.884;2023-02-11T06:41:22;50.90;;;20.13;;
66721;SDS011;53633;49.932;10.884;2023-02-11T06:43:48;50.83;;;20.50;;
66721;SDS011;53633;49.932;10.884;2023-02-11T06:46:15;54.03;;;21.27;;
66721;SDS011;53633;49.932;10.884;2023-02-11T06:48:42;58.92;;;24.02;;
66721;SDS011;53633;49.932;10.884;2023-02-11T06:51:10;49.92;;;20.00;;
66721;SDS011;53633;49.932;10.884;2023-02-11T06:53:39;52.63;;;20.33;;
66721;SDS011;53633;49.932;10.884;2023-02-11T06:56:08;53.47;;;18.45;;
66721;SDS011;53633;49.932;10.884;2023-02-11T06:58:38;49.38;;;19.55;;
66721;SDS011;53633;49.932;10.884;2023-02-11T07:01:05;56.05;;;20.90;;
66721;SDS011;53633;49.932;10.884;2023-02-11T07:03:33;49.20;;;20.55;;
66721;SDS011;53633;49.932;10.884;2023-02-11T07:06:01;44.77;;;18.60;;
66721;SDS011;53633;49.932;10.884;2023-02-11T07:08:27;48.00;;;18.92;;
66721;SDS011;53633;49.932;10.884;2023-02-11T07:10:54;48.67;;;21.77;;
66721;SDS011;53633;49.932;10.884;2023-02-11T07:13:21;56.80;;;21.58;;
66721;SDS011;53633;49.932;10.884;2023-02-11T07:15:49;48.15;;;19.23;;
66721;SDS011;53633;49.932;10.884;2023-02-11T07:18:16;48.27;;;17.47;;
66721;SDS011;53633;49.932;10.884;2023-02-11T07:20:43;46.90;;;18.63;;
66721;SDS011;53633;49.932;10.884;2023-02-11T07:23:10;49.85;;;19.95;;
66721;SDS011;53633;49.932;10.884;2023-02-11T07:25:37;52.15;;;19.02;;
66721;SDS011;53633;49.932;10.884;2023-02-11T07:28:04;53.25;;;21.02;;
66721;SDS011;53633;49.932;10.884;2023-02-11T07:30:31;44.83;;;19.30;;
66721;SDS011;53633;49.932;10.884;2023-02-11T07:32:59;46.08;;;20.08;;
66721;SDS011;53633;49.932;10.884;2023-02-11T07:35:25;49.33;;;21.23;;
66721;SDS011;53633;49.932;10.884;2023-02-11T07:37:52;48.38;;;21.27;;
66721;SDS011;53633;49.932;10.884;2023-02-11T07:40:19;51.17;;;17.60;;
66721;SDS011;53633;49.932;10.884;2023-02-11T07:42:46;45.40;;;19.43;;
66721;SDS011;53633;49.932;10.884;2023-02-11T07:45:12;47.47;;;19.15;;
66721;SDS011;53633;49.932;10.884;2023-02-11T07:47:39;52.47;;;20.35;;
66721;SDS011;53633;49.932;10.884;2023-02-11T07:50:08;45.35;;;19.27;;
66721;SDS011;53633;49.932;10.884;2023-02-11T07:52:35;48.85;;;18.65;;
66721;SDS011;53633;49.932;10.884;2023-02-11T07:55:02;47.80;;;19.13;;
66721;SDS011;53633;49.932;10.884;2023-02-11T07:57:30;51.88;;;18.77;;
66721;SDS011;53633;49.932;10.884;2023-02-11T07:59:57;47.25;;;19.77;;
66721;SDS011;53633;49.932;10.884;2023-02-11T08:02:23;43.17;;;17.73;;
66721;SDS011;53633;49.932;10.884;2023-02-11T08:04:50;49.70;;;19.55;;
66721;SDS011;53633;49.932;10.884;2023-02-11T08:07:18;45.90;;;19.33;;
66721;SDS011;53633;49.932;10.884;2023-02-11T08:09:45;42.85;;;17.40;;
66721;SDS011;53633;49.932;10.884;2023-02-11T08:12:12;48.30;;;18.75;;
66721;SDS011;53633;49.932;10.884;2023-02-11T08:14:38;55.95;;;22.33;;
66721;SDS011;53633;49.932;10.884;2023-02-11T08:17:05;54.92;;;20.38;;
66721;SDS011;53633;49.932;10.884;2023-02-11T08:19:32;55.30;;;21.53;;
66721;SDS011;53633;49.932;10.884;2023-02-11T08:22:00;48.08;;;20.10;;
66721;SDS011;53633;49.932;10.884;2023-02-11T08:24:28;46.45;;;19.90;;
66721;SDS011;53633;49.932;10.884;2023-02-11T08:26:55;45.75;;;19.65;;
66721;SDS011;53633;49.932;10.884;2023-02-11T08:29:22;47.50;;;20.73;;
66721;SDS011;53633;49.932;10.884;2023-02-11T08:31:48;46.17;;;18.83;;
66721;SDS011;53633;49.932;10.884;2023-02-11T08:34:15;42.10;;;17.65;;
66721;SDS011;53633;49.932;10.884;2023-02-11T08:36:42;58.03;;;22.50;;
66721;SDS011;53633;49.932;10.884;2023-02-11T08:39:11;49.17;;;20.17;;
66721;SDS011;53633;49.932;10.884;2023-02-11T08:41:47;44.88;;;16.85;;
66721;SDS011;53633;49.932;10.884;2023-02-11T08:44:15;48.23;;;18.50;;
66721;SDS011;53633;49.932;10.884;2023-02-11T08:46:43;43.60;;;18.30;;
66721;SDS011;53633;49.932;10.884;2023-02-11T08:49:09;41.50;;;17.55;;
66721;SDS011;53633;49.932;10.884;2023-02-11T08:51:36;44.15;;;17.52;;
66721;SDS011;53633;49.932;10.884;2023-02-11T08:54:03;39.88;;;16.17;;
66721;SDS011;53633;49.932;10.884;2023-02-11T08:56:30;40.70;;;17.43;;
66721;SDS011;53633;49.932;10.884;2023-02-11T08:58:58;43.38;;;18.23;;
66721;SDS011;53633;49.932;10.884;2023-02-11T09:01:25;44.63;;;17.52;;
66721;SDS011;53633;49.932;10.884;2023-02-11T09:03:54;49.28;;;19.38;;
66721;SDS011;53633;49.932;10.884;2023-02-11T09:06:22;44.50;;;18.88;;
66721;SDS011;53633;49.932;10.884;2023-02-11T09:08:50;43.23;;;17.57;;
66721;SDS011;53633;49.932;10.884;2023-02-11T09:11:18;44.35;;;17.67;;
66721;SDS011;53633;49.932;10.884;2023-02-11T09:13:47;44.70;;;18.30;;
66721;SDS011;53633;49.932;10.884;2023-02-11T09:16:16;39.80;;;18.83;;
66721;SDS011;53633;49.932;10.884;2023-02-11T09:18:44;40.30;;;16.38;;
66721;SDS011;53633;49.932;10.884;2023-02-11T09:21:11;41.77;;;16.87;;
66721;SDS011;53633;49.932;10.884;2023-02-11T09:23:38;40.88;;;17.35;;
66721;SDS011;53633;49.932;10.884;2023-02-11T09:26:05;48.53;;;18.08;;
66721;SDS011;53633;49.932;10.884;2023-02-11T09:28:34;43.42;;;18.48;;
66721;SDS011;53633;49.932;10.884;2023-02-11T09:31:03;40.35;;;17.85;;
66721;SDS011;53633;49.932;10.884;2023-02-11T09:33:32;43.83;;;17.37;;
66721;SDS011;53633;49.932;10.884;2023-02-11T09:35:59;38.33;;;16.60;;
66721;SDS011;53633;49.932;10.884;2023-02-11T09:38:26;39.65;;;17.50;;
66721;SDS011;53633;49.932;10.884;2023-02-11T09:40:53;38.55;;;16.20;;
66721;SDS011;53633;49.932;10.884;2023-02-11T09:43:20;38.40;;;16.45;;
66721;SDS011;53633;49.932;10.884;2023-02-11T09:45:49;42.13;;;16.90;;
66721;SDS011;53633;49.932;10.884;2023-02-11T09:48:20;41.72;;;17.42;;
66721;SDS011;53633;49.932;10.884;2023-02-11T09:50:50;44.92;;;18.05;;
66721;SDS011;53633;49.932;10.884;2023-02-11T09:53:21;44.60;;;18.02;;
66721;SDS011;53633;49.932;10.884;2023-02-11T09:55:50;50.75;;;18.65;;
66721;SDS011;53633;49.932;10.884;2023-02-11T09:58:19;42.00;;;17.17;;
66721;SDS011;53633;49.932;10.884;2023-02-11T10:00:52;42.33;;;16.38;;
66721;SDS011;53633;49.932;10.884;2023-02-11T10:03:48;40.05;;;16.88;;
66721;SDS011;53633;49.932;10.884;2023-02-11T10:06:40;39.30;;;15.63;;
66721;SDS011;53633;49.932;10.884;2023-02-11T10:12:14;44.80;;;19.70;;
66721;SDS011;53633;49.932;10.884;2023-02-11T10:14:54;43.17;;;18.85;;
66721;SDS011;53633;49.932;10.884;2023-02-11T10:17:34;42.65;;;17.40;;
66721;SDS011;53633;49.932;10.884;2023-02-11T10:20:16;39.20;;;17.77;;
66721;SDS011;53633;49.932;10.884;2023-02-11T10:22:51;44.28;;;19.27;;
66721;SDS011;53633;49.932;10.884;2023-02-11T10:25:21;41.97;;;19.17;;
66721;SDS011;53633;49.932;10.884;2023-02-11T10:27:50;39.45;;;17.30;;
66721;SDS011;53633;49.932;10.884;2023-02-11T10:30:20;57.70;;;24.05;;
66721;SDS011;53633;49.932;10.884;2023-02-11T10:32:51;52.50;;;21.63;;
66721;SDS011;53633;49.932;10.884;2023-02-11T10:35:22;44.88;;;19.13;;
66721;SDS011;53633;49.932;10.884;2023-02-11T10:37:51;45.60;;;18.80;;
66721;SDS011;53633;49.932;10.884;2023-02-11T10:40:19;42.30;;;18.25;;
66721;SDS011;53633;49.932;10.884;2023-02-11T10:42:49;41.42;;;18.98;;
66721;SDS011;53633;49.932;10.884;2023-02-11T10:45:22;37.28;;;16.15;;
66721;SDS011;53633;49.932;10.884;2023-02-11T10:47:53;39.30;;;15.40;;
66721;SDS011;53633;49.932;10.884;2023-02-11T10:50:23;34.87;;;14.77;;
66721;SDS011;53633;49.932;10.884;2023-02-11T10:52:52;35.47;;;14.35;;
66721;SDS011;53633;49.932;10.884;2023-02-11T10:55:37;35.92;;;15.65;;
66721;SDS011;53633;49.932;10.884;2023-02-11T10:58:20;35.95;;;15.55;;
66721;SDS011;53633;49.932;10.884;2023-02-11T11:00:50;38.85;;;15.43;;
66721;SDS011;53633;49.932;10.884;2023-02-11T11:03:20;37.90;;;16.73;;
66721;SDS011;53633;49.932;10.884;2023-02-11T11:05:48;36.65;;;14.98;;
66721;SDS011;53633;49.932;10.884;2023-02-11T11:08:18;38.20;;;15.23;;
66721;SDS011;53633;49.932;10.884;2023-02-11T11:10:45;34.15;;;15.02;;
66721;SDS011;53633;49.932;10.884;2023-02-11T11:13:28;35.20;;;13.98;;
66721;SDS011;53633;49.932;10.884;2023-02-11T11:16:14;34.77;;;14.60;;
66721;SDS011;53633;49.932;10.884;2023-02-11T11:18:47;33.97;;;14.52;;
66721;SDS011;53633;49.932;10.884;2023-02-11T11:21:17;35.90;;;13.88;;
66721;SDS011;53633;49.932;10.884;2023-02-11T11:23:51;33.40;;;14.32;;
66721;SDS011;53633;49.932;10.884;2023-02-11T11:26:20;33.72;;;13.80;;
66721;SDS011;53633;49.932;10.884;2023-02-11T11:28:55;34.87;;;14.67;;
66721;SDS011;53633;49.932;10.884;2023-02-11T11:31:26;38.53;;;15.07;;
66721;SDS011;53633;49.932;10.884;2023-02-11T11:33:56;31.25;;;14.45;;
66721;SDS011;53633;49.932;10.884;2023-02-11T11:36:29;37.40;;;14.98;;
66721;SDS011;53633;49.932;10.884;2023-02-11T11:39:03;34.15;;;14.02;;
66721;SDS011;53633;49.932;10.884;2023-02-11T11:41:48;36.13;;;15.67;;
66721;SDS011;53633;49.932;10.884;2023-02-11T11:44:20;39.08;;;15.07;;
66721;SDS011;53633;49.932;10.884;2023-02-11T11:46:52;34.78;;;15.52;;
66721;SDS011;53633;49.932;10.884;2023-02-11T11:49:33;35.92;;;15.27;;
66721;SDS011;53633;49.932;10.884;2023-02-11T11:52:09;36.53;;;15.55;;
66721;SDS011;53633;49.932;10.884;2023-02-11T11:54:46;32.27;;;14.43;;
66721;SDS011;53633;49.932;10.884;2023-02-11T11:57:20;34.28;;;15.80;;
66721;SDS011;53633;49.932;10.884;2023-02-11T11:59:51;34.05;;;14.18;;
66721;SDS011;53633;49.932;10.884;2023-02-11T12:02:34;32.67;;;14.05;;
66721;SDS011;53633;49.932;10.884;2023-02-11T12:05:13;35.05;;;15.30;;
66721;SDS011;53633;49.932;10.884;2023-02-11T12:07:55;35.90;;;14.03;;
66721;SDS011;53633;49.932;10.884;2023-02-11T12:13:38;35.25;;;15.38;;
66721;SDS011;53633;49.932;10.884;2023-02-11T12:16:14;36.75;;;14.80;;
66721;SDS011;53633;49.932;10.884;2023-02-11T12:18:54;34.35;;;14.55;;
66721;SDS011;53633;49.932;10.884;2023-02-11T12:21:37;37.63;;;15.77;;
66721;SDS011;53633;49.932;10.884;2023-02-11T12:24:16;38.38;;;15.10;;
66721;SDS011;53633;49.932;10.884;2023-02-11T12:26:58;36.58;;;14.93;;
66721;SDS011;53633;49.932;10.884;2023-02-11T12:29:32;32.40;;;14.93;;
66721;SDS011;53633;49.932;10.884;2023-02-11T12:32:16;37.15;;;14.88;;
66721;SDS011;53633;49.932;10.884;2023-02-11T12:34:55;36.67;;;14.03;;
66721;SDS011;53633;49.932;10.884;2023-02-11T12:37:41;37.58;;;14.45;;
66721;SDS011;53633;49.932;10.884;2023-02-11T12:40:21;35.15;;;14.70;;
66721;SDS011;53633;49.932;10.884;2023-02-11T12:43:01;38.00;;;15.35;;
66721;SDS011;53633;49.932;10.884;2023-02-11T12:45:37;37.45;;;14.65;;
66721;SDS011;53633;49.932;10.884;2023-02-11T12:48:17;37.73;;;15.73;;
66721;SDS011;53633;49.932;10.884;2023-02-11T12:50:56;44.50;;;16.45;;
66721;SDS011;53633;49.932;10.884;2023-02-11T12:56:27;35.55;;;14.52;;
66721;SDS011;53633;49.932;10.884;2023-02-11T12:58:59;33.10;;;14.95;;
66721;SDS011;53633;49.932;10.884;2023-02-11T13:01:31;36.00;;;16.37;;
66721;SDS011;53633;49.932;10.884;2023-02-11T13:04:04;40.00;;;16.35;;
66721;SDS011;53633;49.932;10.884;2023-02-11T13:06:38;31.00;;;14.77;;
66721;SDS011;53633;49.932;10.884;2023-02-11T13:09:10;36.03;;;15.55;;
66721;SDS011;53633;49.932;10.884;2023-02-11T13:11:42;37.13;;;14.80;;
66721;SDS011;53633;49.932;10.884;2023-02-11T13:14:15;33.77;;;13.47;;
66721;SDS011;53633;49.932;10.884;2023-02-11T13:16:49;33.78;;;14.52;;
66721;SDS011;53633;49.932;10.884;2023-02-11T13:19:17;34.40;;;15.40;;
66721;SDS011;53633;49.932;10.884;2023-02-11T13:21:55;33.47;;;14.50;;
66721;SDS011;53633;49.932;10.884;2023-02-11T13:24:31;34.22;;;14.90;;
66721;SDS011;53633;49.932;10.884;2023-02-11T13:27:07;29.43;;;13.30;;
66721;SDS011;53633;49.932;10.884;2023-02-11T13:29:48;34.72;;;14.80;;
66721;SDS011;53633;49.932;10.884;2023-02-11T13:35:32;30.48;;;14.20;;
66721;SDS011;53633;49.932;10.884;2023-02-11T13:38:00;34.60;;;14.77;;
66721;SDS011;53633;49.932;10.884;2023-02-11T13:40:29;32.67;;;13.30;;
66721;SDS011;53633;49.932;10.884;2023-02-11T13:42:59;35.72;;;13.85;;
66721;SDS011;53633;49.932;10.884;2023-02-11T13:45:30;35.08;;;15.57;;
66721;SDS011;53633;49.932;10.884;2023-02-11T13:48:02;35.35;;;14.00;;
66721;SDS011;53633;49.932;10.884;2023-02-11T13:50:31;36.35;;;15.18;;
66721;SDS011;53633;49.932;10.884;2023-02-11T13:53:02;37.97;;;15.10;;
66721;SDS011;53633;49.932;10.884;2023-02-11T13:55:31;33.15;;;14.80;;
66721;SDS011;53633;49.932;10.884;2023-02-11T14:01:03;32.47;;;14.40;;
66721;SDS011;53633;49.932;10.884;2023-02-11T14:03:35;36.58;;;13.93;;
66721;SDS011;53633;49.932;10.884;2023-02-11T14:06:10;36.07;;;14.10;;
66721;SDS011;53633;49.932;10.884;2023-02-11T14:08:38;40.30;;;16.17;;
66721;SDS011;53633;49.932;10.884;2023-02-11T14:11:42;34.38;;;15.55;;
66721;SDS011;53633;49.932;10.884;2023-02-11T14:14:13;33.95;;;14.32;;
66721;SDS011;53633;49.932;10.884;2023-02-11T14:19:50;39.33;;;14.90;;
66721;SDS011;53633;49.932;10.884;2023-02-11T14:22:18;36.17;;;17.10;;
66721;SDS011;53633;49.932;10.884;2023-02-11T14:24:50;34.80;;;15.40;;
66721;SDS011;53633;49.932;10.884;2023-02-11T14:30:33;38.13;;;15.65;;
66721;SDS011;53633;49.932;10.884;2023-02-11T14:36:08;37.30;;;17.13;;
66721;SDS011;53633;49.932;10.884;2023-02-11T14:38:47;37.45;;;17.17;;
66721;SDS011;53633;49.932;10.884;2023-02-11T14:41:25;40.67;;;16.63;;
66721;SDS011;53633;49.932;10.884;2023-02-11T14:43:55;43.08;;;17.90;;
66721;SDS011;53633;49.932;10.884;2023-02-11T14:46:24;39.87;;;17.40;;
66721;SDS011;53633;49.932;10.884;2023-02-11T14:48:53;40.22;;;17.52;;
66721;SDS011;53633;49.932;10.884;2023-02-11T14:51:24;41.92;;;18.08;;
66721;SDS011;53633;49.932;10.884;2023-02-11T14:53:56;41.60;;;17.02;;
66721;SDS011;53633;49.932;10.884;2023-02-11T14:56:25;37.53;;;17.42;;
66721;SDS011;53633;49.932;10.884;2023-02-11T14:58:53;37.90;;;17.23;;
66721;SDS011;53633;49.932;10.884;2023-02-11T15:01:24;36.63;;;16.73;;
66721;SDS011;53633;49.932;10.884;2023-02-11T15:03:53;38.38;;;16.95;;